• Join FlightAware (Why Join?)
  • Login
  • US Flag 
01:25AM EDT


 

Airport Tracker/Info


-or-


 

Live Flight TrackerFlight Track Log ✈ N70AG ✈ 07-Aug-2013 ✈ KLAX - KSAN

Flight Track Log - Related Links

Times and Time Zones

All times are in EDT time to prevent confusion due to time zone crossing. See the N70AG flight status page for this flight to view local times or setup timezone preferences in your user account.

Time Position Orientation Groundspeed Altitude Reporting Facility
EDT Latitude Longitude Course Direction KTS MPH feet Rate Location/Type
05:53PM 33.9333 -118.4500 212° Southwest 219 252 3,000  Level Southern California TRACON
05:55PM 33.8303 -118.5281 212° Southwest 261 300 6,000 2,460 Climbing Los Angeles Center
05:56PM 33.7544 -118.5258 179° South 285 328 10,000 2,400 Climbing Los Angeles Center
05:57PM 33.6786 -118.4358 135° Southeast 354 407 11,000 480 Climbing Los Angeles Center
05:58PM 33.6236 -118.3319 122° Southeast 376 433 11,000  Level Los Angeles Center
05:59PM 33.5697 -118.2278 122° Southeast 375 432 11,000  Level Los Angeles Center
06:00PM 33.5144 -118.1231 140° Southeast 375 432 11,000  Level Los Angeles Center
06:01PM 33.4924 -118.1305 140° Southeast  Level Estimated
06:01PM 33.4472 -117.9964 122° Southeast 376 433 11,000  Level Los Angeles Center
06:02PM 33.3914 -117.8925 123° Southeast 375 432 11,000  Level Los Angeles Center
06:03PM 33.3350 -117.7881 123° Southeast 375 432 11,000  Level Los Angeles Center
06:04PM 33.2789 -117.6839 123° Southeast 375 432 11,000  Level Los Angeles Center
06:05PM 33.2167 -117.5667 122° Southeast 376 433 11,000  Level Southern California TRACON
06:07PM 33.0667 -117.3833 134° Southeast 372 428 11,000 -300 Level Southern California TRACON
06:08PM 32.9814 -117.3344 154° Southeast 356 410 10,200 -1,200 Descending Los Angeles Center
06:09PM 32.9167 -117.2833 146° Southeast 304 350 8,700 -1,620 Descending Southern California TRACON
06:10PM 32.8667 -117.2167 132° Southeast 294 338 7,300 -1,500 Descending Southern California TRACON
06:11PM 32.8000 -117.1500 140° Southeast 287 330 5,700 -1,200 Descending Southern California TRACON
06:12PM 32.7667 -117.0833 121° Southeast 251 289 5,000 -1,140 Descending Southern California TRACON
06:14PM 32.7000 -117.0667 168° South 199 229 2,400 -1,260 Descending Southern California TRACON
06:15PM 32.7217 -117.1417 289° West 167 192 800 -1,200 Descending Los Angeles Center